Time;durP1;ratioP1;P1;durP2;ratioP2;P2;SDS_P1;SDS_P2;PMS_P1;PMS_P2;Temp;Humidity;BMP_temperature;BMP_pressure;BME280_temperature;BME280_humidity;BME280_pressure;Samples;Min_cycle;Max_cycle;Signal;HPM_P1;HPM_P2
2022/02/17 00:00:59;;;;;;;0.50;0.50;;;;;;;7.48;67.03;96599.02;106048;1277;22667;-75
2022/02/17 00:03:28;;;;;;;1.50;0.90;;;;;;;7.47;66.99;96590.83;106053;1277;25519;-75
2022/02/17 00:05:56;;;;;;;1.30;0.70;;;;;;;7.47;67.44;96583.42;106175;1277;137360;-75
2022/02/17 00:08:42;;;;;;;0.70;0.60;;;;;;;7.49;66.94;96570.73;105975;1277;22718;-75
2022/02/17 00:11:23;;;;;;;2.10;0.70;;;;;;;7.50;67.28;96570.36;105960;1277;137300;-75
2022/02/17 00:13:50;;;;;;;0.90;0.40;;;;;;;7.52;67.31;96559.69;106106;1280;24437;-75
2022/02/17 00:16:17;;;;;;;2.50;0.60;;;;;;;7.56;67.30;96557.90;105920;1280;22550;-75
2022/02/17 00:18:44;;;;;;;1.50;0.90;;;;;;;7.59;67.34;96551.77;105815;1277;137811;-75
2022/02/17 00:21:13;;;;;;;0.80;0.50;;;;;;;7.63;67.20;96543.86;106038;1277;24284;-75
2022/02/17 00:23:40;;;;;;;1.40;0.60;;;;;;;7.65;67.23;96529.55;105927;1277;137540;-75
2022/02/17 00:26:07;;;;;;;0.70;0.60;;;;;;;7.65;67.15;96512.31;105947;1280;22544;-75
2022/02/17 00:28:35;;;;;;;0.90;0.60;;;;;;;7.64;67.33;96490.00;105897;1278;137841;-74
2022/02/17 00:31:06;;;;;;;0.90;0.70;;;;;;;7.62;67.25;96481.98;106123;1277;22555;-75
2022/02/17 00:33:33;;;;;;;1.00;0.70;;;;;;;7.58;67.42;96472.95;105911;1280;25334;-75
2022/02/17 00:36:00;;;;;;;0.70;0.50;;;;;;;7.56;67.25;96485.02;105851;1277;137504;-74
2022/02/17 00:38:26;;;;;;;0.70;0.60;;;;;;;7.53;67.33;96476.27;106071;1277;22553;-75
2022/02/17 00:40:53;;;;;;;0.50;0.50;;;;;;;7.51;67.55;96459.58;105724;1280;137398;-74
2022/02/17 00:43:20;;;;;;;0.60;0.50;;;;;;;7.48;67.82;96457.91;105987;1277;25543;-74
2022/02/17 00:45:48;;;;;;;0.50;0.40;;;;;;;7.46;67.73;96470.77;105994;1277;22572;-74
2022/02/17 00:48:15;;;;;;;0.70;0.60;;;;;;;7.45;67.84;96470.05;105928;1277;137553;-76
2022/02/17 00:50:44;;;;;;;;;;;;;;;7.48;68.17;96476.43;105947;1277;23590;-75
2022/02/17 00:53:11;;;;;;;1.10;0.60;;;;;;;7.51;68.16;96478.60;105932;1279;123961;-75
2022/02/17 00:55:38;;;;;;;0.50;0.30;;;;;;;7.54;68.10;96471.23;106072;1277;22557;-75
2022/02/17 00:58:06;;;;;;;0.90;0.50;;;;;;;7.55;68.08;96462.98;106106;1277;25614;-76
2022/02/17 01:00:47;;;;;;;0.40;0.40;;;;;;;7.56;68.40;96459.45;105899;1277;137671;-74
2022/02/17 01:03:14;;;;;;;0.70;0.70;;;;;;;7.55;68.37;96460.71;106007;1277;24274;-74
2022/02/17 01:05:41;;;;;;;0.60;0.50;;;;;;;7.54;68.45;96456.77;105811;1277;137266;-74
2022/02/17 01:08:08;;;;;;;1.10;0.60;;;;;;;7.51;68.50;96459.42;106009;1277;24954;-74
2022/02/17 01:10:35;;;;;;;1.50;0.80;;;;;;;7.48;68.65;96458.29;105808;1277;137461;-75
2022/02/17 01:13:03;;;;;;;1.30;0.70;;;;;;;7.46;68.84;96447.80;105867;1277;24289;-75
2022/02/17 01:15:32;;;;;;;1.20;0.60;;;;;;;7.44;68.93;96443.77;106100;1277;22573;-75
2022/02/17 01:17:59;;;;;;;0.70;0.60;;;;;;;7.45;69.01;96453.31;106045;1277;137816;-75
2022/02/17 01:20:29;;;;;;;1.10;0.40;;;;;;;7.46;69.18;96450.94;105976;1280;25298;-75
2022/02/17 01:22:58;;;;;;;0.60;0.60;;;;;;;7.47;69.31;96454.84;105805;1280;139164;-75
2022/02/17 01:25:25;;;;;;;1.00;0.60;;;;;;;7.48;69.38;96444.10;105936;1280;23679;-75
2022/02/17 01:28:06;;;;;;;1.40;0.70;;;;;;;7.47;69.40;96421.69;105968;1281;22632;-75
2022/02/17 01:30:34;;;;;;;0.80;0.80;;;;;;;7.46;69.52;96404.56;106025;1277;137334;-75
2022/02/17 01:33:01;;;;;;;0.60;0.60;;;;;;;7.45;70.20;96396.71;105850;1280;22553;-75
2022/02/17 01:35:29;;;;;;;1.00;0.70;;;;;;;7.46;70.17;96379.49;106031;1280;137231;-75
2022/02/17 01:38:03;;;;;;;1.20;0.50;;;;;;;7.49;70.50;96370.16;105792;1280;24324;-75
2022/02/17 01:40:31;;;;;;;0.90;0.50;;;;;;;7.54;70.87;96380.11;106360;1279;138665;-75
2022/02/17 01:42:58;;;;;;;1.40;0.90;;;;;;;7.64;71.29;96372.60;106043;1277;22833;-75
2022/02/17 01:45:27;;;;;;;1.30;0.70;;;;;;;7.74;71.21;96367.67;106164;1277;22550;-75
2022/02/17 01:47:55;;;;;;;2.80;0.70;;;;;;;7.83;71.08;96356.46;105961;1277;137372;-75
2022/02/17 01:50:28;;;;;;;0.80;0.60;;;;;;;7.91;70.79;96345.03;106022;1277;24384;-75
2022/02/17 01:52:55;;;;;;;1.00;0.40;;;;;;;7.97;70.67;96336.23;105811;1277;137588;-75
2022/02/17 01:55:23;;;;;;;1.20;0.50;;;;;;;8.01;70.98;96321.95;105956;1280;22573;-75
2022/02/17 01:57:50;;;;;;;0.50;0.40;;;;;;;8.05;70.44;96308.04;106124;1277;25255;-75
2022/02/17 02:00:25;;;;;;;1.10;0.60;;;;;;;8.08;70.85;96301.13;105922;1280;137923;-75
2022/02/17 02:02:51;;;;;;;0.60;0.60;;;;;;;8.15;70.72;96311.65;105917;1277;26501;-75
2022/02/17 02:05:32;;;;;;;1.50;0.80;;;;;;;8.20;71.26;96327.29;105932;1277;137323;-75
2022/02/17 02:07:59;;;;;;;1.50;0.90;;;;;;;8.20;72.68;96326.80;106162;1277;22703;-75
2022/02/17 02:10:27;;;;;;;0.90;0.70;;;;;;;8.16;73.46;96313.06;105888;1277;137487;-75
2022/02/17 02:12:54;;;;;;;0.80;0.70;;;;;;;8.07;73.95;96300.71;106311;1277;22550;-75
2022/02/17 02:15:54;;;;;;;1.00;0.70;;;;;;;8.03;74.62;96301.44;105889;1277;25496;-74
2022/02/17 02:18:23;;;;;;;0.80;0.80;;;;;;;7.95;75.05;96286.15;105843;1277;137332;-75
2022/02/17 02:20:55;;;;;;;1.00;0.90;;;;;;;7.89;74.91;96291.07;106018;1280;25389;-77
2022/02/17 02:23:29;;;;;;;1.60;0.90;;;;;;;7.85;74.95;96285.13;105926;1277;137478;-75
2022/02/17 02:26:00;;;;;;;1.30;1.20;;;;;;;7.80;75.10;96269.29;105990;1277;25360;-77
2022/02/17 02:28:30;;;;;;;0.90;0.80;;;;;;;7.77;74.95;96249.15;105776;1277;138272;-75
2022/02/17 02:31:00;;;;;;;1.20;1.00;;;;;;;7.76;75.10;96236.84;105847;1277;25474;-75
2022/02/17 02:33:27;;;;;;;1.10;1.00;;;;;;;7.76;75.27;96232.13;105943;1277;25358;-75
2022/02/17 02:35:56;;;;;;;1.00;0.80;;;;;;;7.79;75.07;96232.66;105766;1277;137569;-75
2022/02/17 02:38:24;;;;;;;1.10;1.00;;;;;;;7.82;74.77;96215.25;105882;1277;22551;-75
2022/02/17 02:40:53;;;;;;;1.10;0.90;;;;;;;7.86;74.76;96208.29;105888;1277;137495;-75
2022/02/17 02:43:38;;;;;;;0.80;0.70;;;;;;;7.90;74.73;96192.91;106140;1277;23951;-75
2022/02/17 02:46:08;;;;;;;1.40;0.80;;;;;;;7.96;74.72;96177.79;105958;1277;22557;-75
2022/02/17 02:48:35;;;;;;;1.30;0.80;;;;;;;8.01;74.96;96184.20;105898;1277;137522;-75
2022/02/17 02:51:06;;;;;;;1.10;1.00;;;;;;;8.05;75.37;96189.63;105972;1277;24427;-75
2022/02/17 02:53:33;;;;;;;0.70;0.70;;;;;;;8.07;75.25;96185.92;105928;1277;137471;-75
2022/02/17 02:56:00;;;;;;;0.90;0.80;;;;;;;8.09;75.53;96187.59;105943;1277;22541;-75
2022/02/17 02:58:27;;;;;;;1.20;0.90;;;;;;;8.11;75.66;96190.89;105798;1280;137870;-75
2022/02/17 03:00:54;;;;;;;1.60;1.20;;;;;;;8.16;75.90;96189.48;106330;1277;24338;-75
2022/02/17 03:03:21;;;;;;;1.00;0.90;;;;;;;8.19;76.01;96187.68;106005;1280;23079;-75
2022/02/17 03:05:48;;;;;;;1.50;1.00;;;;;;;8.20;76.31;96186.95;105933;1277;137469;-75
2022/02/17 03:08:30;;;;;;;0.90;0.80;;;;;;;8.20;76.81;96176.98;106202;1277;22630;-75
2022/02/17 03:10:58;;;;;;;1.30;1.10;;;;;;;8.19;77.14;96182.35;105896;1277;138111;-75
2022/02/17 03:13:34;;;;;;;2.50;1.20;;;;;;;8.18;77.90;96187.25;106020;1277;24359;-75
2022/02/17 03:16:03;;;;;;;1.00;0.90;;;;;;;8.15;78.18;96168.90;106021;1279;22541;-75
2022/02/17 03:18:31;;;;;;;3.10;1.20;;;;;;;8.10;78.69;96162.27;106062;1274;137370;-75
2022/02/17 03:20:58;;;;;;;1.40;1.00;;;;;;;8.04;78.92;96154.20;106059;1277;22566;-75
2022/02/17 03:23:25;;;;;;;1.40;0.80;;;;;;;7.99;79.22;96141.82;105942;1277;138051;-75
2022/02/17 03:26:00;;;;;;;0.80;0.80;;;;;;;7.96;79.72;96134.48;106006;1277;24274;-75
2022/02/17 03:28:27;;;;;;;1.20;0.80;;;;;;;7.93;79.89;96122.27;106133;1277;138304;-75
2022/02/17 03:31:02;;;;;;;1.30;1.10;;;;;;;7.90;80.29;96115.67;105988;1277;22565;-75
2022/02/17 03:33:30;;;;;;;1.00;0.60;;;;;;;7.86;80.33;96108.14;106107;1277;22566;-75
2022/02/17 03:35:59;;;;;;;3.20;1.20;;;;;;;7.82;80.74;96108.94;105826;1277;137727;-75
2022/02/17 03:38:26;;;;;;;1.20;1.00;;;;;;;7.78;80.97;96094.27;105882;1280;22598;-75
2022/02/17 03:40:57;;;;;;;1.60;1.30;;;;;;;7.78;80.80;96086.09;105949;1277;137804;-75
2022/02/17 03:43:30;;;;;;;0.90;0.80;;;;;;;7.76;81.25;96076.79;106193;1277;25264;-75
2022/02/17 03:45:58;;;;;;;0.80;0.80;;;;;;;7.75;81.31;96058.55;106141;1277;24284;-75
2022/02/17 03:48:26;;;;;;;0.90;0.80;;;;;;;7.73;81.50;96047.30;105855;1280;138169;-75
2022/02/17 03:50:58;;;;;;;1.10;0.90;;;;;;;7.72;81.86;96036.79;106006;1277;22568;-75
2022/02/17 03:53:25;;;;;;;1.70;0.90;;;;;;;7.73;81.82;96036.95;105895;1278;137905;-75
2022/02/17 03:55:52;;;;;;;1.90;1.40;;;;;;;7.74;82.01;96033.75;106250;1277;22560;-75
2022/02/17 04:01:09;;;;;;;1.30;0.80;;;;;;;7.73;82.15;96022.75;106054;1280;24261;-75
2022/02/17 04:03:43;;;;;;;0.80;0.80;;;;;;;7.73;82.07;96012.73;106122;1280;24250;-75
2022/02/17 04:06:10;;;;;;;0.50;0.50;;;;;;;7.76;82.08;96000.45;105903;1277;138083;-75
2022/02/17 04:08:50;;;;;;;2.20;0.80;;;;;;;7.79;81.64;95998.36;106129;1277;23938;-75
2022/02/17 04:11:18;;;;;;;0.90;0.60;;;;;;;7.80;81.96;95992.42;105872;1278;137626;-75
2022/02/17 04:13:49;;;;;;;0.70;0.70;;;;;;;7.83;81.86;95997.08;106113;1277;24386;-77
2022/02/17 04:16:21;;;;;;;1.60;0.80;;;;;;;7.86;81.98;96009.01;106069;1277;22570;-75
2022/02/17 04:19:04;;;;;;;0.80;0.70;;;;;;;7.88;81.85;95994.14;105847;1277;138116;-75
2022/02/17 04:21:54;;;;;;;0.70;0.60;;;;;;;7.91;81.70;96009.44;106007;1277;22570;-75
2022/02/17 04:24:41;;;;;;;1.50;0.50;;;;;;;7.92;81.50;96012.91;105886;1277;137926;-75
2022/02/17 04:27:11;;;;;;;1.20;0.60;;;;;;;7.94;81.35;96007.51;106221;1277;24267;-75
2022/02/17 04:29:39;;;;;;;0.50;0.50;;;;;;;7.97;81.68;96004.88;105939;1277;138260;-75
2022/02/17 04:32:09;;;;;;;;;;;;;;;8.01;81.25;96004.73;106049;1277;23025;-75
2022/02/17 04:34:36;;;;;;;1.40;0.50;;;;;;;8.04;81.18;96004.97;106024;1278;22668;-75
2022/02/17 04:37:11;;;;;;;0.60;0.60;;;;;;;8.05;81.18;95996.02;106117;1277;137668;-75
2022/02/17 04:39:38;;;;;;;0.60;0.40;;;;;;;8.07;81.05;95991.59;105763;1280;22549;-75
2022/02/17 04:42:24;;;;;;;0.30;0.30;;;;;;;8.14;80.52;95970.35;105917;1277;138485;-75
2022/02/17 04:45:17;;;;;;;1.40;0.30;;;;;;;8.25;80.31;95966.36;106089;1277;24236;-75
2022/02/17 04:47:46;;;;;;;0.20;0.20;;;;;;;8.33;79.56;95974.40;105965;1277;137849;-75
2022/02/17 04:50:13;;;;;;;2.50;0.20;;;;;;;8.41;79.14;95971.37;106146;1277;22547;-75
2022/02/17 04:52:40;;;;;;;2.90;0.30;;;;;;;8.49;78.57;95976.81;106120;1277;25268;-75
2022/02/17 04:55:08;;;;;;;0.20;0.20;;;;;;;8.56;78.18;95965.77;105930;1278;137900;-75
2022/02/17 04:57:35;;;;;;;0.40;0.30;;;;;;;8.63;77.61;95959.52;105926;1279;25329;-77
2022/02/17 05:00:03;;;;;;;0.30;0.30;;;;;;;8.68;77.33;95950.16;105974;1280;138034;-75
2022/02/17 05:02:31;;;;;;;0.30;0.20;;;;;;;8.71;77.19;95956.23;106158;1280;22557;-75
2022/02/17 05:05:09;;;;;;;0.40;0.30;;;;;;;8.74;76.60;95953.98;105849;1280;137905;-76
2022/02/17 05:07:37;;;;;;;0.30;0.20;;;;;;;8.78;76.42;95944.59;105959;1278;24562;-75
2022/02/17 05:10:05;;;;;;;0.80;0.30;;;;;;;8.82;76.07;95934.91;105955;1277;24236;-75
2022/02/17 05:12:39;;;;;;;0.10;0.10;;;;;;;8.85;75.92;95921.59;105976;1277;137547;-75
2022/02/17 05:15:07;;;;;;;0.20;0.20;;;;;;;8.85;75.63;95919.68;106072;1277;22546;-75
2022/02/17 05:17:35;;;;;;;4.10;0.30;;;;;;;8.86;75.51;95915.92;105946;1277;138114;-75
2022/02/17 05:20:03;;;;;;;0.40;0.30;;;;;;;8.85;75.28;95914.04;105944;1277;23070;-75
2022/02/17 05:22:49;;;;;;;3.60;0.30;;;;;;;8.87;75.47;95908.45;105962;1277;22553;-75
2022/02/17 05:25:49;;;;;;;0.30;0.10;;;;;;;8.90;74.94;95902.34;106106;1277;22598;-75
2022/02/17 05:28:24;;;;;;;0.70;0.20;;;;;;;8.91;74.95;95900.03;105890;1277;25264;-74
2022/02/17 05:31:12;;;;;;;0.40;0.20;;;;;;;8.93;74.85;95874.38;105771;1280;137415;-75
2022/02/17 05:33:57;;;;;;;2.60;0.20;;;;;;;8.92;74.74;95881.66;105654;1278;24431;-75
2022/02/17 05:36:44;;;;;;;2.30;0.30;;;;;;;8.93;74.47;95886.05;105824;1277;137636;-75
2022/02/17 05:39:30;;;;;;;0.80;0.30;;;;;;;8.96;74.47;95883.83;105873;1277;24250;-75
2022/02/17 05:42:00;;;;;;;0.20;0.20;;;;;;;8.97;74.51;95870.02;105800;1278;137831;-75
2022/02/17 05:44:27;;;;;;;0.40;0.20;;;;;;;8.97;74.62;95881.21;106024;1278;23214;-75
2022/02/17 05:46:55;;;;;;;0.90;0.30;;;;;;;8.95;74.59;95878.25;105973;1278;23006;-75
2022/02/17 05:49:24;;;;;;;0.40;0.20;;;;;;;8.96;74.70;95867.61;105975;1278;137294;-75
2022/02/17 05:51:51;;;;;;;;;;;;;;;8.96;74.61;95859.24;105990;1277;25579;-75
2022/02/17 05:54:18;;;;;;;0.10;0.10;;;;;;;8.97;74.64;95858.08;106003;1277;124312;-76
2022/02/17 05:56:59;;;;;;;0.40;0.20;;;;;;;8.98;74.79;95853.72;105738;1280;22551;-76
2022/02/17 05:59:26;;;;;;;2.10;0.40;;;;;;;8.97;75.42;95832.73;105721;1280;137650;-75
2022/02/17 06:01:53;;;;;;;0.50;0.40;;;;;;;8.94;75.94;95834.14;106121;1277;22625;-75
2022/02/17 06:04:20;;;;;;;0.70;0.20;;;;;;;8.90;76.32;95837.73;105836;1277;22578;-75
2022/02/17 06:06:47;;;;;;;0.80;0.20;;;;;;;8.89;76.41;95831.30;105830;1277;137680;-75
2022/02/17 06:09:14;;;;;;;0.30;0.30;;;;;;;8.88;76.86;95832.55;106162;1277;25343;-76
2022/02/17 06:11:42;;;;;;;2.00;0.90;;;;;;;8.87;76.80;95834.53;105909;1278;137616;-75
2022/02/17 06:14:09;;;;;;;0.40;0.40;;;;;;;8.85;76.87;95830.88;105960;1280;24402;-75
2022/02/17 06:16:36;;;;;;;1.20;0.40;;;;;;;8.84;77.23;95812.48;105991;1280;25537;-75
2022/02/17 06:19:03;;;;;;;1.30;0.70;;;;;;;8.87;77.14;95801.05;105778;1277;138670;-75
2022/02/17 06:21:30;;;;;;;0.80;0.70;;;;;;;8.88;77.30;95802.76;105862;1277;22578;-75
2022/02/17 06:24:11;;;;;;;0.70;0.50;;;;;;;8.87;77.61;95802.95;105734;1277;137730;-75
2022/02/17 06:26:38;;;;;;;0.80;0.70;;;;;;;8.85;77.87;95814.60;105828;1281;22544;-75
2022/02/17 06:29:05;;;;;;;0.40;0.20;;;;;;;8.83;77.84;95815.83;105835;1277;22601;-77
2022/02/17 06:31:32;;;;;;;0.20;0.20;;;;;;;8.84;77.86;95810.65;105764;1277;138719;-75
2022/02/17 06:33:59;;;;;;;0.50;0.30;;;;;;;8.86;77.83;95790.58;105793;1278;22563;-75
2022/02/17 06:36:26;;;;;;;1.00;0.50;;;;;;;8.90;77.18;95767.89;106046;1277;137440;-75
2022/02/17 06:38:54;;;;;;;0.60;0.30;;;;;;;8.94;77.33;95771.00;105838;1278;24307;-75
2022/02/17 06:41:23;;;;;;;2.00;0.50;;;;;;;8.98;76.98;95763.38;105819;1280;137922;-75
2022/02/17 06:43:50;;;;;;;0.80;0.40;;;;;;;9.03;76.58;95760.58;105916;1281;22624;-75
2022/02/17 06:46:18;;;;;;;0.40;0.40;;;;;;;9.07;76.66;95755.01;105943;1281;24109;-75
2022/02/17 06:49:00;;;;;;;0.90;0.60;;;;;;;9.13;76.12;95750.98;105842;1277;137824;-75
2022/02/17 06:51:27;;;;;;;0.40;0.40;;;;;;;9.18;75.89;95747.79;105993;1278;25395;-75
2022/02/17 06:54:08;;;;;;;0.40;0.40;;;;;;;9.21;75.71;95740.79;106015;1281;137461;-75
2022/02/17 06:56:35;;;;;;;0.40;0.30;;;;;;;9.24;75.73;95739.89;106061;1281;22548;-75
2022/02/17 06:59:04;;;;;;;1.10;0.40;;;;;;;9.30;75.50;95730.86;106002;1278;25370;-76
2022/02/17 07:01:31;;;;;;;0.40;0.20;;;;;;;9.33;75.64;95716.08;105840;1281;137260;-75
2022/02/17 07:03:58;;;;;;;2.40;0.40;;;;;;;9.35;75.56;95713.05;106103;1281;25379;-75
2022/02/17 07:06:25;;;;;;;0.40;0.30;;;;;;;9.36;75.26;95707.27;105842;1281;138884;-75
2022/02/17 07:08:52;;;;;;;0.40;0.30;;;;;;;9.36;75.26;95694.89;105923;1278;25418;-75
2022/02/17 07:12:16;;;;;;;0.70;0.30;;;;;;;9.39;74.84;95686.89;105996;1277;138318;-75
2022/02/17 07:15:03;;;;;;;0.50;0.40;;;;;;;9.44;74.69;95676.09;106007;1278;25494;-77
2022/02/17 07:17:44;;;;;;;0.40;0.20;;;;;;;9.48;75.01;95670.01;105884;1278;137911;-74
2022/02/17 07:20:25;;;;;;;0.40;0.40;;;;;;;9.50;75.39;95663.27;105945;1278;24273;-75
2022/02/17 07:22:52;;;;;;;0.30;0.30;;;;;;;9.49;75.71;95656.55;105726;1283;24291;-75
2022/02/17 07:25:19;;;;;;;0.50;0.20;;;;;;;9.51;75.66;95638.81;105669;1280;138578;-75
2022/02/17 07:27:47;;;;;;;0.60;0.40;;;;;;;9.54;75.54;95632.56;105859;1282;24903;-75
2022/02/17 07:30:14;;;;;;;0.60;0.40;;;;;;;9.59;75.39;95641.52;105892;1281;137521;-75
2022/02/17 07:32:44;;;;;;;0.30;0.30;;;;;;;9.63;75.03;95640.15;106303;1277;22566;-75
2022/02/17 07:35:29;;;;;;;0.50;0.30;;;;;;;9.66;74.98;95616.23;105919;1278;24341;-75
2022/02/17 07:37:56;;;;;;;1.00;0.50;;;;;;;9.66;74.81;95600.14;105850;1278;137818;-75
2022/02/17 07:40:23;;;;;;;1.10;0.50;;;;;;;9.67;74.84;95594.63;106186;1280;22604;-75
2022/02/17 07:42:50;;;;;;;0.70;0.50;;;;;;;9.69;75.00;95590.34;105795;1277;137678;-75
2022/02/17 07:45:18;;;;;;;0.70;0.50;;;;;;;9.70;75.15;95606.41;105903;1281;24275;-75
2022/02/17 07:47:46;;;;;;;1.50;0.90;;;;;;;9.69;75.24;95622.73;106033;1281;137727;-75
2022/02/17 07:50:15;;;;;;;1.70;1.10;;;;;;;9.68;75.36;95672.64;105980;1280;25420;-76
2022/02/17 07:52:43;;;;;;;0.60;0.40;;;;;;;9.67;76.08;95769.96;106213;1281;23339;-74
2022/02/17 07:55:16;;;;;;;4.70;0.70;;;;;;;9.25;73.44;95826.21;105896;1281;138355;-74
2022/02/17 07:57:43;;;;;;;7.70;1.00;;;;;;;7.84;85.84;95861.17;105889;1281;22603;-74
2022/02/17 08:00:13;;;;;;;0.70;0.30;;;;;;;6.48;92.27;95892.16;105841;1280;138197;-75
2022/02/17 08:02:44;;;;;;;1.00;0.20;;;;;;;5.53;94.29;95915.13;104826;1281;3003315;-75
2022/02/17 08:05:15;;;;;;;1.00;0.30;;;;;;;-128.00;-1.00;-1.00;38910;1281;7505634;-77
2022/02/17 08:07:42;;;;;;;1.00;0.30;;;;;;;-128.00;-1.00;-1.00;30347;1281;8205749;-76
2022/02/17 08:10:09;;;;;;;1.00;0.30;;;;;;;-128.00;-1.00;-1.00;19336;1281;7505809;-76
2022/02/17 08:12:40;;;;;;;1.00;0.30;;;;;;;-128.00;-1.00;-1.00;19233;1278;7507415;-76
2022/02/17 08:15:07;;;;;;;1.00;0.30;;;;;;;-128.00;-1.00;-1.00;19368;1278;7507571;-75
2022/02/17 08:17:34;;;;;;;1.00;0.30;;;;;;;-128.00;-1.00;-1.00;19374;1281;7511841;-75
2022/02/17 08:20:01;;;;;;;1.00;0.30;;;;;;;-128.00;-1.00;-1.00;19301;1281;7603546;-75
2022/02/17 08:22:27;;;;;;;1.00;0.30;;;;;;;-128.00;-1.00;-1.00;19430;1277;7505091;-75
2022/02/17 08:24:55;;;;;;;1.00;0.30;;;;;;;-128.00;-1.00;-1.00;19312;1278;7505884;-76
2022/02/17 08:27:22;;;;;;;1.00;0.30;;;;;;;-128.00;-1.00;-1.00;19366;1277;7507607;-76
2022/02/17 08:29:49;;;;;;;1.00;0.30;;;;;;;-128.00;-1.00;-1.00;19276;1278;7505925;-75
2022/02/17 08:32:16;;;;;;;1.00;0.30;;;;;;;-128.00;-1.00;-1.00;19354;1281;7505369;-75
2022/02/17 08:34:43;;;;;;;1.00;0.30;;;;;;;-128.00;-1.00;-1.00;19252;1284;7506759;-75
2022/02/17 08:37:10;;;;;;;1.00;0.30;;;;;;;-128.00;-1.00;-1.00;19253;1281;7505776;-75
2022/02/17 08:39:37;;;;;;;1.00;0.30;;;;;;;-128.00;-1.00;-1.00;19320;1278;7506529;-75
2022/02/17 08:42:04;;;;;;;1.00;0.30;;;;;;;-128.00;-1.00;-1.00;19220;1277;7604703;-75
2022/02/17 08:44:31;;;;;;;1.00;0.30;;;;;;;-128.00;-1.00;-1.00;19289;1278;7506287;-77
2022/02/17 08:46:58;;;;;;;1.00;0.30;;;;;;;-128.00;-1.00;-1.00;19331;1281;7506472;-75
2022/02/17 08:49:25;;;;;;;1.00;0.30;;;;;;;-128.00;-1.00;-1.00;19217;1280;7505527;-74
2022/02/17 08:51:52;;;;;;;1.00;0.30;;;;;;;-128.00;-1.00;-1.00;19338;1281;7507422;-75
2022/02/17 08:54:19;;;;;;;1.00;0.30;;;;;;;-128.00;-1.00;-1.00;19214;1281;7507252;-75
2022/02/17 08:56:46;;;;;;;1.00;0.30;;;;;;;-128.00;-1.00;-1.00;19330;1278;7506210;-75
2022/02/17 08:59:13;;;;;;;1.00;0.30;;;;;;;-128.00;-1.00;-1.00;19287;1277;7507553;-75
2022/02/17 09:01:40;;;;;;;1.00;0.30;;;;;;;-128.00;-1.00;-1.00;19202;1278;7506336;-75
2022/02/17 09:04:07;;;;;;;1.00;0.30;;;;;;;-128.00;-1.00;-1.00;19287;1277;7505606;-75
2022/02/17 09:06:34;;;;;;;1.00;0.30;;;;;;;-128.00;-1.00;-1.00;19201;1278;7505752;-75
2022/02/17 09:09:01;;;;;;;1.00;0.30;;;;;;;-128.00;-1.00;-1.00;19365;1277;7506358;-75
2022/02/17 09:11:29;;;;;;;1.00;0.30;;;;;;;-128.00;-1.00;-1.00;19319;1278;7507364;-75
2022/02/17 09:13:56;;;;;;;1.00;0.30;;;;;;;-128.00;-1.00;-1.00;19242;1280;7505819;-75
2022/02/17 09:16:23;;;;;;;1.00;0.30;;;;;;;-128.00;-1.00;-1.00;19283;1280;7506201;-76
2022/02/17 09:18:50;;;;;;;1.00;0.30;;;;;;;-128.00;-1.00;-1.00;19245;1280;7507558;-76
2022/02/17 09:21:17;;;;;;;1.00;0.30;;;;;;;-128.00;-1.00;-1.00;19318;1280;7506228;-75
2022/02/17 09:23:44;;;;;;;1.00;0.30;;;;;;;-128.00;-1.00;-1.00;19281;1277;7507445;-75
2022/02/17 09:26:11;;;;;;;1.00;0.30;;;;;;;-128.00;-1.00;-1.00;19246;1277;7505837;-75
2022/02/17 09:28:39;;;;;;;1.00;0.30;;;;;;;-128.00;-1.00;-1.00;19338;1278;7505841;-76
2022/02/17 09:31:07;;;;;;;1.00;0.30;;;;;;;-128.00;-1.00;-1.00;19262;1277;7506387;-75
2022/02/17 09:33:34;;;;;;;1.00;0.30;;;;;;;-128.00;-1.00;-1.00;19384;1280;7505764;-75
2022/02/17 09:36:01;;;;;;;1.00;0.30;;;;;;;-128.00;-1.00;-1.00;19297;1279;7505926;-75
2022/02/17 09:38:28;;;;;;;1.00;0.30;;;;;;;-128.00;-1.00;-1.00;19315;1281;7507110;-75
2022/02/17 09:40:55;;;;;;;1.00;0.30;;;;;;;-128.00;-1.00;-1.00;19365;1279;7507627;-76
2022/02/17 09:43:37;;;;;;;1.00;0.30;;;;;;;-128.00;-1.00;-1.00;19215;1281;7508577;-75
2022/02/17 09:46:04;;;;;;;1.00;0.30;;;;;;;-128.00;-1.00;-1.00;19289;1283;7506865;-75
2022/02/17 09:48:32;;;;;;;1.00;0.30;;;;;;;-128.00;-1.00;-1.00;19197;1280;7507329;-76
2022/02/17 09:51:00;;;;;;;1.00;0.30;;;;;;;-128.00;-1.00;-1.00;19216;1281;7507093;-76
2022/02/17 09:53:35;;;;;;;1.00;0.30;;;;;;;-128.00;-1.00;-1.00;19372;1279;7506545;-76
2022/02/17 09:56:04;;;;;;;1.00;0.30;;;;;;;-128.00;-1.00;-1.00;19255;1281;7507519;-76
2022/02/17 09:58:31;;;;;;;1.00;0.30;;;;;;;-128.00;-1.00;-1.00;19299;1281;7506794;-76
2022/02/17 10:00:58;;;;;;;1.00;0.30;;;;;;;-128.00;-1.00;-1.00;19138;1281;7603011;-76
2022/02/17 10:03:36;;;;;;;1.00;0.30;;;;;;;-128.00;-1.00;-1.00;19361;1280;7505725;-76
2022/02/17 10:06:17;;;;;;;1.00;0.30;;;;;;;-128.00;-1.00;-1.00;19198;1280;7508444;-76
2022/02/17 10:08:44;;;;;;;1.00;0.30;;;;;;;-128.00;-1.00;-1.00;19300;1280;7506010;-77
2022/02/17 10:11:31;;;;;;;1.00;0.30;;;;;;;-128.00;-1.00;-1.00;19340;1280;7506644;-76
2022/02/17 10:14:14;;;;;;;1.00;0.30;;;;;;;-128.00;-1.00;-1.00;19253;1280;7507102;-75
2022/02/17 10:17:00;;;;;;;1.00;0.30;;;;;;;-128.00;-1.00;-1.00;19353;1278;7505777;-75
2022/02/17 10:19:28;;;;;;;1.00;0.30;;;;;;;-128.00;-1.00;-1.00;19315;1279;7506019;-74
2022/02/17 10:22:01;;;;;;;1.00;0.30;;;;;;;-128.00;-1.00;-1.00;19271;1281;7507307;-76
2022/02/17 10:24:35;;;;;;;1.00;0.30;;;;;;;-128.00;-1.00;-1.00;19188;1280;7506899;-78
2022/02/17 10:27:04;;;;;;;1.00;0.30;;;;;;;-128.00;-1.00;-1.00;19319;1280;7507113;-78
2022/02/17 10:29:34;;;;;;;1.00;0.30;;;;;;;-128.00;-1.00;-1.00;19312;1282;7506407;-77
2022/02/17 10:32:20;;;;;;;1.00;0.30;;;;;;;-128.00;-1.00;-1.00;19267;1280;7508489;-76
2022/02/17 10:34:47;;;;;;;1.00;0.30;;;;;;;-128.00;-1.00;-1.00;19283;1279;7506199;-76
2022/02/17 10:37:14;;;;;;;1.00;0.30;;;;;;;-128.00;-1.00;-1.00;19318;1278;7505537;-76
2022/02/17 10:39:42;;;;;;;1.00;0.30;;;;;;;-128.00;-1.00;-1.00;19329;1277;7506549;-76
2022/02/17 10:42:10;;;;;;;1.00;0.30;;;;;;;-128.00;-1.00;-1.00;19364;1277;7505904;-76
2022/02/17 10:44:38;;;;;;;1.00;0.30;;;;;;;-128.00;-1.00;-1.00;19377;1277;7505576;-75
2022/02/17 10:47:13;;;;;;;1.00;0.30;;;;;;;-128.00;-1.00;-1.00;19364;1277;7506984;-76
2022/02/17 10:49:41;;;;;;;1.00;0.30;;;;;;;-128.00;-1.00;-1.00;19253;1278;7602618;-76
2022/02/17 10:52:10;;;;;;;1.00;0.30;;;;;;;-128.00;-1.00;-1.00;19378;1280;7505382;-75
2022/02/17 10:54:37;;;;;;;1.00;0.30;;;;;;;-128.00;-1.00;-1.00;19347;1277;7603144;-75
2022/02/17 10:57:06;;;;;;;1.00;0.30;;;;;;;-128.00;-1.00;-1.00;19347;1277;7506931;-76
2022/02/17 11:02:23;;;;;;;1.00;0.30;;;;;;;-128.00;-1.00;-1.00;19226;1278;7507592;-75
2022/02/17 11:04:50;;;;;;;1.00;0.30;;;;;;;-128.00;-1.00;-1.00;19697;1277;7507539;-75
2022/02/17 11:07:18;;;;;;;1.00;0.30;;;;;;;-128.00;-1.00;-1.00;19321;1278;7506442;-76
2022/02/17 11:09:45;;;;;;;1.00;0.30;;;;;;;-128.00;-1.00;-1.00;19437;1277;7507341;-75
2022/02/17 11:12:13;;;;;;;1.00;0.30;;;;;;;-128.00;-1.00;-1.00;19318;1277;7506881;-75
2022/02/17 11:14:44;;;;;;;1.00;0.30;;;;;;;-128.00;-1.00;-1.00;19318;1277;7506878;-74
2022/02/17 11:17:12;;;;;;;1.00;0.30;;;;;;;-128.00;-1.00;-1.00;19463;1277;7505771;-75
2022/02/17 11:19:46;;;;;;;1.00;0.30;;;;;;;-128.00;-1.00;-1.00;19337;1277;7507042;-75
2022/02/17 11:22:42;;;;;;;1.00;0.30;;;;;;;-128.00;-1.00;-1.00;19401;1277;7507102;-76
2022/02/17 11:25:12;;;;;;;1.00;0.30;;;;;;;-128.00;-1.00;-1.00;19255;1277;7505405;-76
2022/02/17 11:27:58;;;;;;;1.00;0.30;;;;;;;-128.00;-1.00;-1.00;19344;1278;7505811;-76
2022/02/17 11:30:27;;;;;;;1.00;0.30;;;;;;;-128.00;-1.00;-1.00;19324;1277;7505779;-76
2022/02/17 11:33:13;;;;;;;1.00;0.30;;;;;;;-128.00;-1.00;-1.00;19301;1277;7602848;-76
2022/02/17 11:35:40;;;;;;;1.00;0.30;;;;;;;-128.00;-1.00;-1.00;19289;1277;7506300;-75
2022/02/17 11:38:26;;;;;;;1.00;0.30;;;;;;;-128.00;-1.00;-1.00;19355;1277;7506060;-76
2022/02/17 11:41:12;;;;;;;1.00;0.30;;;;;;;-128.00;-1.00;-1.00;19361;1277;7507215;-75
2022/02/17 11:43:41;;;;;;;1.00;0.30;;;;;;;-128.00;-1.00;-1.00;19265;1280;7507205;-75
2022/02/17 11:46:11;;;;;;;1.00;0.30;;;;;;;-128.00;-1.00;-1.00;19309;1277;7506109;-75
2022/02/17 11:48:38;;;;;;;1.00;0.30;;;;;;;-128.00;-1.00;-1.00;19352;1277;7506506;-75
2022/02/17 11:51:19;;;;;;;1.00;0.30;;;;;;;-128.00;-1.00;-1.00;19238;1280;7604866;-76